Carnival Pride — H3VU — position and weather

sailwx.info

Track history (hours):
 
Tides and Currents Weather Stations Pressure Air Temp Water Temp Dewpoint Dewpoint Depression Visibility Wind Speed Wind Dir Waves Ship Positions

Carnival Pride

Operator: Carnival Cruise Lines

Last reported at 2017-Sep-20 06:00 UTC. Time now 2017-Sep-22 06:32 UTC.
Position N 32°42' W 065°12'.

Type: Ship. MMSI: 354215000.

Wind from 190 at 30 knots

Barometer 1015.2 mb
Air temperature 26.0 ° C
Visibility: greater than 5.4 NM
Dewpoint 19.9 ° C
Water temperature 27.0 ° C

Date/timePositionNaut miles runAvg speedWind from/ knotsBaromVisibWave heightAir tempDewpointWater temp
2017-Sep-20 06:00N 32°42' W 065°12'8617.2 190 / 301015.2 5.4 26.019.927.0
2017-Sep-20 01:00N 32°48' W 066°54'7117.7 200 / 321014.8 5.4 26.023.126.0
2017-Sep-19 21:00N 32°54' W 068°18'5518.5 210 / 331013.310.8 27.022.623.0
2017-Sep-19 18:00N 32°54' W 069°24'7117.7 230 / 351010.910.8 27.022.626.0
2017-Sep-19 14:00N 33°00' W 070°48'10120.2 230 / 281008.8 5.4 26.023.126.0
2017-Sep-19 09:00N 33°06' W 072°48'5518.4 280 / 351006.710.8 25.020.523.0
2017-Sep-19 06:00N 33°06' W 073°54'13619.4 300 / 401006.9 5.4 25.020.527.0
2017-Sep-18 23:00N 33°18' W 076°36'9812.2 350 / 351011.510.8 27.021.024.0
2017-Sep-18 15:00N 34°42' W 075°36'5919.8 030 / 301012.2 25.020.520.0
2017-Sep-18 12:00N 35°36' W 075°06'3718.6 030 / 301014.210.8 23.019.923.0
2017-Sep-18 10:00N 36°12' W 075°18'1817.2 030 / 301014.410.8 23.019.923.0
2017-Sep-18 08:56N 36°27' W 075°31'1219.4
2017-Sep-18 08:18N 36°38' W 075°39'619.1
2017-Sep-18 07:59N 36°43' W 075°42'1018.8
2017-Sep-18 07:27N 36°51' W 075°50'819.0
2017-Sep-18 07:00N 36°56' W 075°58'714.5
2017-Sep-18 06:30N 37°02' W 076°04'2318.2
2017-Sep-18 05:13N 37°25' W 076°05'818.8
2017-Sep-18 04:46N 37°33' W 076°02'518.7
2017-Sep-18 04:29N 37°38' W 076°06'918.3
2017-Sep-18 03:59N 37°46' W 076°11'1018.8
2017-Sep-18 03:28N 37°56' W 076°11'919.3
2017-Sep-18 03:00N 38°05' W 076°13'1019.7
2017-Sep-18 02:30N 38°14' W 076°16'1020.0
2017-Sep-18 02:01N 38°23' W 076°21'1020.2
2017-Sep-18 01:30N 38°33' W 076°26'1020.1
2017-Sep-18 01:00N 38°43' W 076°26'1020.6
2017-Sep-18 00:31N 38°53' W 076°24'917.5
2017-Sep-18 00:00N 39°02' W 076°23'714.0
2017-Sep-17 23:30N 39°09' W 076°24'5 9.8
2017-Sep-17 23:00N 39°12' W 076°29'4 8.2
2017-Sep-17 22:30N 39°14' W 076°33'2 4.8
2017-Sep-17 22:00N 39°16' W 076°36'0 0.2
2017-Sep-17 21:30N 39°16' W 076°36'0 0.0
2017-Sep-17 21:00N 39°16' W 076°36'0 0.0
2017-Sep-17 20:30N 39°16' W 076°36'0 0.0
2017-Sep-17 20:00N 39°16' W 076°36'0 0.0
2017-Sep-17 19:30N 39°16' W 076°36'0 0.0
2017-Sep-17 19:00N 39°16' W 076°36'0 0.0
2017-Sep-17 18:30N 39°16' W 076°36'0 0.0
2017-Sep-17 17:57N 39°16' W 076°36'0 0.0
2017-Sep-17 17:30N 39°16' W 076°36'0 0.0
2017-Sep-17 17:00N 39°16' W 076°36'0 0.0
2017-Sep-17 16:30N 39°16' W 076°36'0 0.0
2017-Sep-17 16:00N 39°16' W 076°36'0 0.0
2017-Sep-17 15:30N 39°16' W 076°36'0 0.0
2017-Sep-17 15:00N 39°16' W 076°36'0 0.0
2017-Sep-17 14:27N 39°16' W 076°36'0 0.0
2017-Sep-17 14:00N 39°16' W 076°36'0 0.0
2017-Sep-17 13:30N 39°16' W 076°36'0 0.0
2017-Sep-17 13:00N 39°16' W 076°36'0 0.0
2017-Sep-17 12:30N 39°16' W 076°36'0 0.0
2017-Sep-17 12:00N 39°16' W 076°36'0 0.0
2017-Sep-17 11:30N 39°16' W 076°36'0 0.0
2017-Sep-17 11:01N 39°16' W 076°36'2 4.5
2017-Sep-17 10:31N 39°15' W 076°33'4 8.0
2017-Sep-17 10:01N 39°12' W 076°30'510.1
2017-Sep-17 09:30N 39°09' W 076°25'612.0
2017-Sep-17 09:00N 39°03' W 076°23'612.0
2017-Sep-17 08:30N 38°57' W 076°23'612.5
2017-Sep-17 08:00N 38°51' W 076°24'611.2
2017-Sep-17 07:30N 38°45' W 076°26'510.2
2017-Sep-17 07:00N 38°40' W 076°26'510.8
2017-Sep-17 06:30N 38°35' W 076°26'610.5
2017-Sep-17 05:58N 38°29' W 076°24'510.7
2017-Sep-17 05:30N 38°25' W 076°21'611.2
2017-Sep-17 05:00N 38°20' W 076°18'611.9
2017-Sep-17 04:30N 38°14' W 076°16'611.7
2017-Sep-17 04:00N 38°09' W 076°14'611.7
2017-Sep-17 03:30N 38°03' W 076°13'611.3
2017-Sep-17 03:00N 37°57' W 076°10'611.4
2017-Sep-17 02:30N 37°52' W 076°09'711.5
2017-Sep-17 01:55N 37°45' W 076°11'611.3
2017-Sep-17 01:23N 37°39' W 076°08'411.1
2017-Sep-17 00:59N 37°36' W 076°05'510.2
2017-Sep-17 00:30N 37°31' W 076°03'2710.5
2017-Sep-16 21:55N 37°04' W 076°06'511.6
2017-Sep-16 21:30N 37°01' W 076°02'611.0
2017-Sep-16 21:00N 36°57' W 075°58'5 9.5
2017-Sep-16 20:30N 36°54' W 075°53'610.9
2017-Sep-16 19:59N 36°50' W 075°47'12413.8
2017-Sep-16 11:00N 37°53' W 073°33'1615.9
2017-Sep-16 10:02N 38°02' W 073°17'9239.8
2017-Sep-16 10:00N 38°00' W 073°06'881.2 080 / 41020.610.8 21.019.423.0
2017-Sep-16 09:54N 38°03' W 073°15'1716.0
2017-Sep-16 08:49N 38°13' W 072°57'516.2
2017-Sep-16 08:29N 38°16' W 072°51'9915.3
2017-Sep-16 02:00N 39°12' W 071°06'1045.0 170 / 81020.7 5.4 22.020.519.0
2017-Sep-16 01:46N 39°20' W 070°57'4315.4
2017-Sep-15 23:00N 39°36' W 070°06'14217.7 180 / 101020.0 5.4 18.016.317.0
2017-Sep-15 15:00N 41°00' W 067°36'10717.8 180 / 151020.1 0.1 21.014.219.0
2017-Sep-15 09:00N 42°42' W 066°54'163 4.8 250 / 281016.910.8 19.015.722.0
2017-Sep-13 23:00N 44°06' W 063°42'43 2.5 270 / 181008.610.8 20.016.717.0
2017-Sep-13 06:00N 43°36' W 064°24'6713.4 300 / 201005.4 5.4 16.010.415.0
2017-Sep-13 01:00N 43°00' W 065°42'5012.6 270 / 221008.6 15.011.319.0
2017-Sep-12 21:00N 42°24' W 066°30'8812.5 270 / 201009.310.8 17.013.522.0
2017-Sep-12 14:00N 41°06' W 067°24'1218.7 340 / 231014.0 5.4 19.011.820.0
2017-Sep-12 13:21N 40°60' W 067°38'413.0
2017-Sep-12 13:00N 40°58' W 067°43'1012.9
2017-Sep-12 12:15N 40°52' W 067°54'312.9
2017-Sep-12 12:00N 40°51' W 067°57'712.8
2017-Sep-12 11:28N 40°47' W 068°05'612.7
2017-Sep-12 11:00N 40°44' W 068°12'612.7
2017-Sep-12 10:30N 40°41' W 068°19'1711.2
2017-Sep-12 09:00N 40°30' W 068°36'4414.6 310 / 201016.310.8 19.015.719.0
2017-Sep-12 06:00N 40°06' W 069°24'4812.0 320 / 251017.2 5.4 19.013.821.0
2017-Sep-12 02:00N 39°42' W 070°18'5518.4 330 / 181020.010.8 20.010.926.0
2017-Sep-11 23:00N 39°12' W 071°18'3617.3 360 / 151021.310.8 20.010.921.0
2017-Sep-11 20:53N 38°56' W 071°60'5318.3
2017-Sep-11 18:00N 38°24' W 072°54'3415.5 010 / 201023.710.8 20.013.024.0
2017-Sep-11 15:49N 38°10' W 073°33'517.0
2017-Sep-11 15:30N 38°08' W 073°39'917.1
2017-Sep-11 14:59N 38°03' W 073°48'817.2
2017-Sep-11 14:30N 37°59' W 073°57'917.0
2017-Sep-11 14:00N 37°54' W 074°07'916.9
2017-Sep-11 13:30N 37°50' W 074°16'916.5
2017-Sep-11 12:56N 37°45' W 074°26'1416.1
2017-Sep-11 12:04N 37°37' W 074°41'9119.7
2017-Sep-11 12:00N 37°30' W 074°48'519.5 090 / 181026.710.8 21.012.221.0
2017-Sep-11 11:45N 37°35' W 074°47'4616.6
2017-Sep-11 09:00N 37°00' W 075°24'2112.5 090 / 241026.710.8 21.012.223.0
2017-Sep-11 07:20N 36°48' W 075°45'514.7
2017-Sep-11 07:00N 36°51' W 075°51'712.8
2017-Sep-11 06:29N 36°55' W 075°57'4 9.2
2017-Sep-11 06:00N 36°59' W 076°00'915.7
2017-Sep-11 05:27N 37°06' W 076°07'1616.3
2017-Sep-11 04:27N 37°22' W 076°05'1017.6
2017-Sep-11 03:53N 37°32' W 076°03'3217.8
2017-Sep-11 02:06N 38°02' W 076°13'2118.8
2017-Sep-11 00:59N 38°23' W 076°20'1318.4
2017-Sep-11 00:16N 38°35' W 076°26'518.0
2017-Sep-11 00:00N 38°40' W 076°25'918.2
2017-Sep-10 23:30N 38°49' W 076°25'918.4
2017-Sep-10 23:01N 38°58' W 076°23'714.5
2017-Sep-10 22:31N 39°05' W 076°24'612.9
2017-Sep-10 22:01N 39°11' W 076°27'611.7
2017-Sep-10 21:30N 39°14' W 076°33'3 5.0
2017-Sep-10 20:59N 39°16' W 076°36'0 0.0
2017-Sep-10 20:29N 39°16' W 076°36'0 0.0
2017-Sep-10 19:59N 39°16' W 076°36'0 0.0
2017-Sep-10 19:29N 39°16' W 076°36'0 0.0
2017-Sep-10 18:59N 39°16' W 076°36'0 0.0
2017-Sep-10 18:29N 39°16' W 076°36'0 0.0
2017-Sep-10 17:59N 39°16' W 076°36'0 0.0
2017-Sep-10 17:29N 39°16' W 076°36'0 0.0
2017-Sep-10 16:59N 39°16' W 076°36'0 0.0
2017-Sep-10 16:29N 39°16' W 076°36'0 0.0
2017-Sep-10 15:59N 39°16' W 076°36'0 0.0
2017-Sep-10 15:29N 39°16' W 076°36'0 0.0
2017-Sep-10 14:59N 39°16' W 076°36'0 0.0
2017-Sep-10 13:59N 39°16' W 076°36'0 0.0
2017-Sep-10 13:29N 39°16' W 076°36'0 0.0
2017-Sep-10 12:59N 39°16' W 076°36'0 0.0
2017-Sep-10 12:29N 39°16' W 076°36'0 0.0
2017-Sep-10 11:59N 39°16' W 076°36'0 0.0
2017-Sep-10 11:30N 39°16' W 076°36'1 1.9
2017-Sep-10 11:00N 39°15' W 076°35'4 7.4
2017-Sep-10 10:30N 39°13' W 076°31'510.6
2017-Sep-10 10:00N 39°10' W 076°26'712.4
2017-Sep-10 09:28N 39°04' W 076°23'511.1
2017-Sep-10 09:00N 38°58' W 076°23'4 8.1
2017-Sep-10 08:31N 38°54' W 076°24'4 8.2
2017-Sep-10 08:00N 38°50' W 076°24'4 8.3
2017-Sep-10 07:30N 38°46' W 076°26'5 8.1
2017-Sep-10 06:53N 38°41' W 076°26'1112.8
2017-Sep-10 06:00N 38°30' W 076°24'   040 / 241026.9 5.4 19.013.823.0
Track history (hours):
 
Tides and Currents Weather Stations Pressure Air Temp Water Temp Dewpoint Dewpoint Depression Visibility Wind Speed Wind Dir Waves Ship Positions

Carnival Pride

Operator: Carnival Cruise Lines

Last reported at 2017-Sep-20 06:00 UTC. Time now 2017-Sep-22 06:32 UTC.
Position N 32°42' W 065°12'.

Type: Ship. MMSI: 354215000.

Wind from 190 at 30 knots

Barometer 1015.2 mb
Air temperature 26.0 ° C
Visibility: greater than 5.4 NM
Dewpoint 19.9 ° C
Water temperature 27.0 ° C

Date/timePositionNaut miles runAvg speedWind from/ knotsBaromVisibWave heightAir tempDewpointWater temp
2017-Sep-20 06:00N 32°42' W 065°12'8617.2 190 / 301015.2 5.4 26.019.927.0
2017-Sep-20 01:00N 32°48' W 066°54'7117.7 200 / 321014.8 5.4 26.023.126.0
2017-Sep-19 21:00N 32°54' W 068°18'5518.5 210 / 331013.310.8 27.022.623.0
2017-Sep-19 18:00N 32°54' W 069°24'7117.7 230 / 351010.910.8 27.022.626.0
2017-Sep-19 14:00N 33°00' W 070°48'10120.2 230 / 281008.8 5.4 26.023.126.0
2017-Sep-19 09:00N 33°06' W 072°48'5518.4 280 / 351006.710.8 25.020.523.0
2017-Sep-19 06:00N 33°06' W 073°54'13619.4 300 / 401006.9 5.4 25.020.527.0
2017-Sep-18 23:00N 33°18' W 076°36'9812.2 350 / 351011.510.8 27.021.024.0
2017-Sep-18 15:00N 34°42' W 075°36'5919.8 030 / 301012.2 25.020.520.0
2017-Sep-18 12:00N 35°36' W 075°06'3718.6 030 / 301014.210.8 23.019.923.0
2017-Sep-18 10:00N 36°12' W 075°18'1817.2 030 / 301014.410.8 23.019.923.0
2017-Sep-18 08:56N 36°27' W 075°31'1219.4
2017-Sep-18 08:18N 36°38' W 075°39'619.1
2017-Sep-18 07:59N 36°43' W 075°42'1018.8
2017-Sep-18 07:27N 36°51' W 075°50'819.0
2017-Sep-18 07:00N 36°56' W 075°58'714.5
2017-Sep-18 06:30N 37°02' W 076°04'2318.2
2017-Sep-18 05:13N 37°25' W 076°05'818.8
2017-Sep-18 04:46N 37°33' W 076°02'518.7
2017-Sep-18 04:29N 37°38' W 076°06'918.3
2017-Sep-18 03:59N 37°46' W 076°11'1018.8
2017-Sep-18 03:28N 37°56' W 076°11'919.3
2017-Sep-18 03:00N 38°05' W 076°13'1019.7
2017-Sep-18 02:30N 38°14' W 076°16'1020.0
2017-Sep-18 02:01N 38°23' W 076°21'1020.2
2017-Sep-18 01:30N 38°33' W 076°26'1020.1
2017-Sep-18 01:00N 38°43' W 076°26'1020.6
2017-Sep-18 00:31N 38°53' W 076°24'917.5
2017-Sep-18 00:00N 39°02' W 076°23'714.0
2017-Sep-17 23:30N 39°09' W 076°24'5 9.8
2017-Sep-17 23:00N 39°12' W 076°29'4 8.2
2017-Sep-17 22:30N 39°14' W 076°33'2 4.8
2017-Sep-17 22:00N 39°16' W 076°36'0 0.2
2017-Sep-17 21:30N 39°16' W 076°36'0 0.0
2017-Sep-17 21:00N 39°16' W 076°36'0 0.0
2017-Sep-17 20:30N 39°16' W 076°36'0 0.0
2017-Sep-17 20:00N 39°16' W 076°36'0 0.0
2017-Sep-17 19:30N 39°16' W 076°36'0 0.0
2017-Sep-17 19:00N 39°16' W 076°36'0 0.0
2017-Sep-17 18:30N 39°16' W 076°36'0 0.0
2017-Sep-17 17:57N 39°16' W 076°36'0 0.0
2017-Sep-17 17:30N 39°16' W 076°36'0 0.0
2017-Sep-17 17:00N 39°16' W 076°36'0 0.0
2017-Sep-17 16:30N 39°16' W 076°36'0 0.0
2017-Sep-17 16:00N 39°16' W 076°36'0 0.0
2017-Sep-17 15:30N 39°16' W 076°36'0 0.0
2017-Sep-17 15:00N 39°16' W 076°36'0 0.0
2017-Sep-17 14:27N 39°16' W 076°36'0 0.0
2017-Sep-17 14:00N 39°16' W 076°36'0 0.0
2017-Sep-17 13:30N 39°16' W 076°36'0 0.0
2017-Sep-17 13:00N 39°16' W 076°36'0 0.0
2017-Sep-17 12:30N 39°16' W 076°36'0 0.0
2017-Sep-17 12:00N 39°16' W 076°36'0 0.0
2017-Sep-17 11:30N 39°16' W 076°36'0 0.0
2017-Sep-17 11:01N 39°16' W 076°36'2 4.5
2017-Sep-17 10:31N 39°15' W 076°33'4 8.0
2017-Sep-17 10:01N 39°12' W 076°30'510.1
2017-Sep-17 09:30N 39°09' W 076°25'612.0
2017-Sep-17 09:00N 39°03' W 076°23'612.0
2017-Sep-17 08:30N 38°57' W 076°23'612.5
2017-Sep-17 08:00N 38°51' W 076°24'611.2
2017-Sep-17 07:30N 38°45' W 076°26'510.2
2017-Sep-17 07:00N 38°40' W 076°26'510.8
2017-Sep-17 06:30N 38°35' W 076°26'610.5
2017-Sep-17 05:58N 38°29' W 076°24'510.7
2017-Sep-17 05:30N 38°25' W 076°21'611.2
2017-Sep-17 05:00N 38°20' W 076°18'611.9
2017-Sep-17 04:30N 38°14' W 076°16'611.7
2017-Sep-17 04:00N 38°09' W 076°14'611.7
2017-Sep-17 03:30N 38°03' W 076°13'611.3
2017-Sep-17 03:00N 37°57' W 076°10'611.4
2017-Sep-17 02:30N 37°52' W 076°09'711.5
2017-Sep-17 01:55N 37°45' W 076°11'611.3
2017-Sep-17 01:23N 37°39' W 076°08'411.1
2017-Sep-17 00:59N 37°36' W 076°05'510.2
2017-Sep-17 00:30N 37°31' W 076°03'2710.5
2017-Sep-16 21:55N 37°04' W 076°06'511.6
2017-Sep-16 21:30N 37°01' W 076°02'611.0
2017-Sep-16 21:00N 36°57' W 075°58'5 9.5
2017-Sep-16 20:30N 36°54' W 075°53'610.9
2017-Sep-16 19:59N 36°50' W 075°47'12413.8
2017-Sep-16 11:00N 37°53' W 073°33'1615.9
2017-Sep-16 10:02N 38°02' W 073°17'9239.8
2017-Sep-16 10:00N 38°00' W 073°06'881.2 080 / 41020.610.8 21.019.423.0
2017-Sep-16 09:54N 38°03' W 073°15'1716.0
2017-Sep-16 08:49N 38°13' W 072°57'516.2
2017-Sep-16 08:29N 38°16' W 072°51'9915.3
2017-Sep-16 02:00N 39°12' W 071°06'1045.0 170 / 81020.7 5.4 22.020.519.0
2017-Sep-16 01:46N 39°20' W 070°57'4315.4
2017-Sep-15 23:00N 39°36' W 070°06'14217.7 180 / 101020.0 5.4 18.016.317.0
2017-Sep-15 15:00N 41°00' W 067°36'10717.8 180 / 151020.1 0.1 21.014.219.0
2017-Sep-15 09:00N 42°42' W 066°54'163 4.8 250 / 281016.910.8 19.015.722.0
2017-Sep-13 23:00N 44°06' W 063°42'43 2.5 270 / 181008.610.8 20.016.717.0
2017-Sep-13 06:00N 43°36' W 064°24'6713.4 300 / 201005.4 5.4 16.010.415.0
2017-Sep-13 01:00N 43°00' W 065°42'5012.6 270 / 221008.6 15.011.319.0
2017-Sep-12 21:00N 42°24' W 066°30'8812.5 270 / 201009.310.8 17.013.522.0
2017-Sep-12 14:00N 41°06' W 067°24'1218.7 340 / 231014.0 5.4 19.011.820.0
2017-Sep-12 13:21N 40°60' W 067°38'413.0
2017-Sep-12 13:00N 40°58' W 067°43'1012.9
2017-Sep-12 12:15N 40°52' W 067°54'312.9
2017-Sep-12 12:00N 40°51' W 067°57'712.8
2017-Sep-12 11:28N 40°47' W 068°05'612.7
2017-Sep-12 11:00N 40°44' W 068°12'612.7
2017-Sep-12 10:30N 40°41' W 068°19'1711.2
2017-Sep-12 09:00N 40°30' W 068°36'4414.6 310 / 201016.310.8 19.015.719.0
2017-Sep-12 06:00N 40°06' W 069°24'4812.0 320 / 251017.2 5.4 19.013.821.0
2017-Sep-12 02:00N 39°42' W 070°18'5518.4 330 / 181020.010.8 20.010.926.0
2017-Sep-11 23:00N 39°12' W 071°18'3617.3 360 / 151021.310.8 20.010.921.0
2017-Sep-11 20:53N 38°56' W 071°60'5318.3
2017-Sep-11 18:00N 38°24' W 072°54'3415.5 010 / 201023.710.8 20.013.024.0
2017-Sep-11 15:49N 38°10' W 073°33'517.0
2017-Sep-11 15:30N 38°08' W 073°39'917.1
2017-Sep-11 14:59N 38°03' W 073°48'817.2
2017-Sep-11 14:30N 37°59' W 073°57'917.0
2017-Sep-11 14:00N 37°54' W 074°07'916.9
2017-Sep-11 13:30N 37°50' W 074°16'916.5
2017-Sep-11 12:56N 37°45' W 074°26'1416.1
2017-Sep-11 12:04N 37°37' W 074°41'9119.7
2017-Sep-11 12:00N 37°30' W 074°48'519.5 090 / 181026.710.8 21.012.221.0
2017-Sep-11 11:45N 37°35' W 074°47'4616.6
2017-Sep-11 09:00N 37°00' W 075°24'2112.5 090 / 241026.710.8 21.012.223.0
2017-Sep-11 07:20N 36°48' W 075°45'514.7
2017-Sep-11 07:00N 36°51' W 075°51'712.8
2017-Sep-11 06:29N 36°55' W 075°57'4 9.2
2017-Sep-11 06:00N 36°59' W 076°00'915.7
2017-Sep-11 05:27N 37°06' W 076°07'1616.3
2017-Sep-11 04:27N 37°22' W 076°05'1017.6
2017-Sep-11 03:53N 37°32' W 076°03'3217.8
2017-Sep-11 02:06N 38°02' W 076°13'2118.8
2017-Sep-11 00:59N 38°23' W 076°20'1318.4
2017-Sep-11 00:16N 38°35' W 076°26'518.0
2017-Sep-11 00:00N 38°40' W 076°25'918.2
2017-Sep-10 23:30N 38°49' W 076°25'918.4
2017-Sep-10 23:01N 38°58' W 076°23'714.5
2017-Sep-10 22:31N 39°05' W 076°24'612.9
2017-Sep-10 22:01N 39°11' W 076°27'611.7
2017-Sep-10 21:30N 39°14' W 076°33'3 5.0
2017-Sep-10 20:59N 39°16' W 076°36'0 0.0
2017-Sep-10 20:29N 39°16' W 076°36'0 0.0
2017-Sep-10 19:59N 39°16' W 076°36'0 0.0
2017-Sep-10 19:29N 39°16' W 076°36'0 0.0
2017-Sep-10 18:59N 39°16' W 076°36'0 0.0
2017-Sep-10 18:29N 39°16' W 076°36'0 0.0
2017-Sep-10 17:59N 39°16' W 076°36'0 0.0
2017-Sep-10 17:29N 39°16' W 076°36'0 0.0
2017-Sep-10 16:59N 39°16' W 076°36'0 0.0
2017-Sep-10 16:29N 39°16' W 076°36'0 0.0
2017-Sep-10 15:59N 39°16' W 076°36'0 0.0
2017-Sep-10 15:29N 39°16' W 076°36'0 0.0
2017-Sep-10 14:59N 39°16' W 076°36'0 0.0
2017-Sep-10 13:59N 39°16' W 076°36'0 0.0
2017-Sep-10 13:29N 39°16' W 076°36'0 0.0
2017-Sep-10 12:59N 39°16' W 076°36'0 0.0
2017-Sep-10 12:29N 39°16' W 076°36'0 0.0
2017-Sep-10 11:59N 39°16' W 076°36'0 0.0
2017-Sep-10 11:30N 39°16' W 076°36'1 1.9
2017-Sep-10 11:00N 39°15' W 076°35'4 7.4
2017-Sep-10 10:30N 39°13' W 076°31'510.6
2017-Sep-10 10:00N 39°10' W 076°26'712.4
2017-Sep-10 09:28N 39°04' W 076°23'511.1
2017-Sep-10 09:00N 38°58' W 076°23'4 8.1
2017-Sep-10 08:31N 38°54' W 076°24'4 8.2
2017-Sep-10 08:00N 38°50' W 076°24'4 8.3
2017-Sep-10 07:30N 38°46' W 076°26'5 8.1
2017-Sep-10 06:53N 38°41' W 076°26'1112.8
2017-Sep-10 06:00N 38°30' W 076°24'   040 / 241026.9 5.4 19.013.823.0

Dump ship's entire track history